createdAt,value
2022-10-17T00:03:28.269Z,99.80
2022-10-17T00:08:33.537Z,100.00
2022-10-17T00:13:37.267Z,100.00
2022-10-17T00:18:40.928Z,100.00
2022-10-17T00:23:47.795Z,99.18
2022-10-17T00:28:52.390Z,100.00
2022-10-17T00:33:56.181Z,99.42
2022-10-17T00:39:01.347Z,96.03
2022-10-17T00:44:08.954Z,97.91
2022-10-17T00:49:13.625Z,100.00
2022-10-17T00:54:20.900Z,100.00
2022-10-17T00:59:25.776Z,100.00
2022-10-17T01:04:31.751Z,100.00
2022-10-17T01:09:37.912Z,100.00
2022-10-17T01:14:47.077Z,100.00
2022-10-17T01:20:00.628Z,100.00
2022-10-17T01:25:22.729Z,100.00
2022-10-17T01:30:36.371Z,100.00
2022-10-17T01:35:44.109Z,100.00
2022-10-17T01:40:50.901Z,100.00
2022-10-17T01:45:58.977Z,100.00
2022-10-17T01:51:07.067Z,100.00
2022-10-17T01:56:11.702Z,100.00
2022-10-17T02:01:17.187Z,100.00
2022-10-17T02:06:22.600Z,100.00
2022-10-17T02:11:28.216Z,100.00
2022-10-17T02:16:36.505Z,100.00
2022-10-17T02:21:45.453Z,100.00
2022-10-17T02:26:57.138Z,100.00
2022-10-17T02:32:02.874Z,100.00
2022-10-17T02:37:10.265Z,100.00
2022-10-17T02:42:15.754Z,100.00
2022-10-17T02:47:25.263Z,100.00
2022-10-17T02:52:35.664Z,100.00
2022-10-17T02:57:43.506Z,100.00
2022-10-17T03:02:48.241Z,100.00
2022-10-17T03:07:53.586Z,100.00
2022-10-17T03:12:57.579Z,100.00
2022-10-17T03:18:02.022Z,100.00
2022-10-17T03:23:08.499Z,100.00
2022-10-17T03:28:13.397Z,100.00
2022-10-17T03:33:17.855Z,100.00
2022-10-17T03:38:24.321Z,100.00
2022-10-17T03:43:29.094Z,100.00
2022-10-17T03:48:33.969Z,100.00
2022-10-17T03:53:39.896Z,100.00
2022-10-17T03:58:45.285Z,100.00
2022-10-17T04:03:52.607Z,100.00
2022-10-17T04:08:58.604Z,100.00
2022-10-17T04:14:09.240Z,100.00
2022-10-17T04:19:15.224Z,100.00
2022-10-17T04:24:25.281Z,100.00
2022-10-17T04:29:55.146Z,100.00
2022-10-17T04:35:02.171Z,100.00
2022-10-17T04:40:08.756Z,100.00
2022-10-17T04:45:13.510Z,100.00
2022-10-17T04:50:18.239Z,100.00
2022-10-17T04:55:41.640Z,100.00
2022-10-17T05:00:45.597Z,100.00
2022-10-17T05:05:56.746Z,100.00
2022-10-17T05:11:04.871Z,100.00
2022-10-17T05:16:09.001Z,100.00
2022-10-17T05:21:12.924Z,100.00
2022-10-17T05:26:18.727Z,100.00
2022-10-17T05:31:22.583Z,100.00
2022-10-17T05:36:26.647Z,100.00
2022-10-17T05:41:32.642Z,100.00
2022-10-17T05:46:36.605Z,98.35
2022-10-17T05:51:41.247Z,96.42
2022-10-17T05:56:46.543Z,92.73
2022-10-17T06:01:51.350Z,86.80
2022-10-17T06:06:56.316Z,95.13
2022-10-17T06:12:01.753Z,94.23
2022-10-17T06:17:06.903Z,96.75
2022-10-17T06:22:10.706Z,92.81
2022-10-17T06:27:20.361Z,92.55
2022-10-17T06:32:24.315Z,86.99
2022-10-17T06:37:35.353Z,88.16
2022-10-17T06:42:43.762Z,85.51
2022-10-17T06:48:03.356Z,88.57
2022-10-17T06:53:19.303Z,80.47
2022-10-17T06:58:30.518Z,80.97
2022-10-17T07:03:44.931Z,84.41
2022-10-17T07:08:50.065Z,81.75
2022-10-17T07:13:56.866Z,81.40
2022-10-17T07:19:00.822Z,75.47
2022-10-17T07:24:10.650Z,76.50
2022-10-17T07:29:17.532Z,80.18
2022-10-17T07:34:38.640Z,77.05
2022-10-17T07:39:43.671Z,77.53
2022-10-17T07:44:49.000Z,77.89
2022-10-17T07:49:53.252Z,79.28
2022-10-17T07:54:56.873Z,77.86
2022-10-17T08:00:02.204Z,78.77
2022-10-17T08:05:16.154Z,75.08
2022-10-17T08:10:20.189Z,77.69
2022-10-17T08:15:29.450Z,73.82
2022-10-17T08:20:35.774Z,71.79
2022-10-17T08:25:39.874Z,73.73
2022-10-17T08:30:45.021Z,73.16
2022-10-17T08:35:48.738Z,72.10
2022-10-17T08:40:53.238Z,71.45
2022-10-17T08:46:03.103Z,66.73
2022-10-17T08:51:10.584Z,65.22
2022-10-17T08:56:19.749Z,69.05
2022-10-17T09:02:04.515Z,66.82
2022-10-17T09:08:10.888Z,65.31
2022-10-17T09:51:21.821Z,59.44
2022-10-17T09:57:02.294Z,64.45
2022-10-17T10:02:24.323Z,64.84
2022-10-17T10:07:33.014Z,62.54
2022-10-17T10:12:42.813Z,59.89
2022-10-17T10:18:06.926Z,60.26
2022-10-17T10:23:22.818Z,58.74
2022-10-17T10:28:41.457Z,60.69
2022-10-17T10:33:56.779Z,57.82
2022-10-17T10:39:35.387Z,59.33
2022-10-17T10:44:45.061Z,59.77
2022-10-17T10:49:49.674Z,62.29
2022-10-17T10:55:00.994Z,59.80
2022-10-17T11:00:09.790Z,58.28
2022-10-17T11:05:18.928Z,58.91
2022-10-17T11:10:29.640Z,57.04
2022-10-17T11:15:37.898Z,58.43
2022-10-17T11:20:46.188Z,60.46
2022-10-17T11:31:08.411Z,60.46
2022-10-17T11:36:14.460Z,57.86
2022-10-17T11:41:20.435Z,56.47
2022-10-17T11:46:27.530Z,55.26
2022-10-17T11:57:09.147Z,48.96
2022-10-17T12:02:21.862Z,46.63
2022-10-17T12:07:29.341Z,42.84
2022-10-17T12:12:34.561Z,42.45
2022-10-17T12:17:40.887Z,42.46
2022-10-17T12:22:48.147Z,43.99
2022-10-17T12:27:52.286Z,44.57
2022-10-17T12:33:06.103Z,42.50
2022-10-17T12:38:21.738Z,41.99
2022-10-17T12:43:42.749Z,42.92
2022-10-17T12:49:03.060Z,41.99
2022-10-17T12:54:16.774Z,40.48
2022-10-17T12:59:22.526Z,41.37
2022-10-17T13:04:28.267Z,41.19
2022-10-17T13:09:35.038Z,41.02
2022-10-17T13:14:55.009Z,42.01
2022-10-17T13:20:02.004Z,43.71
2022-10-17T13:25:10.585Z,41.46
2022-10-17T13:30:29.346Z,41.85
2022-10-17T13:41:30.546Z,44.90
2022-10-17T13:46:38.918Z,45.65
2022-10-17T13:51:55.530Z,44.17
2022-10-17T13:57:22.035Z,45.31
2022-10-17T14:02:31.607Z,45.77
2022-10-17T14:08:10.451Z,45.71
2022-10-17T14:13:28.275Z,45.22
2022-10-17T14:18:37.845Z,45.78
2022-10-17T14:24:15.441Z,44.75
2022-10-17T14:29:22.958Z,45.99
2022-10-17T14:34:32.599Z,45.71
2022-10-17T14:39:52.343Z,45.94
2022-10-17T14:45:08.665Z,46.97
2022-10-17T14:50:22.797Z,47.23
2022-10-17T14:55:33.015Z,48.32
2022-10-17T15:00:43.191Z,49.10
2022-10-17T15:05:59.666Z,50.29
2022-10-17T15:11:14.548Z,52.37
2022-10-17T15:16:34.572Z,53.22
2022-10-17T15:21:46.962Z,55.06
2022-10-17T15:32:03.925Z,60.28
2022-10-17T15:37:15.052Z,62.87
2022-10-17T15:42:21.332Z,68.47
2022-10-17T15:47:26.684Z,72.21
2022-10-17T15:52:31.082Z,73.94
2022-10-17T15:57:39.231Z,78.57
2022-10-17T16:02:46.769Z,82.62
2022-10-17T16:07:52.344Z,81.62
2022-10-17T16:12:59.315Z,82.82
2022-10-17T16:18:07.394Z,81.56
2022-10-17T16:23:13.976Z,80.64
2022-10-17T16:28:19.273Z,82.66
2022-10-17T16:33:23.310Z,81.93
2022-10-17T16:38:36.408Z,83.82
2022-10-17T16:43:44.937Z,85.67
2022-10-17T16:48:49.371Z,85.65
2022-10-17T16:53:54.687Z,88.44
2022-10-17T16:59:00.475Z,86.22
2022-10-17T17:04:11.012Z,84.28
2022-10-17T17:09:17.755Z,84.02
2022-10-17T17:14:25.813Z,88.60
2022-10-17T17:19:32.065Z,86.26
2022-10-17T17:24:35.787Z,86.76
2022-10-17T17:29:44.938Z,85.39
2022-10-17T17:34:49.153Z,89.80
2022-10-17T17:39:56.063Z,89.46
2022-10-17T17:45:04.061Z,88.22
2022-10-17T17:50:08.561Z,89.04
2022-10-17T17:55:12.889Z,90.98
2022-10-17T18:00:21.273Z,88.99
2022-10-17T18:05:30.766Z,89.31
2022-10-17T18:10:37.684Z,92.26
2022-10-17T18:15:45.931Z,90.15
2022-10-17T18:20:53.361Z,88.23
2022-10-17T18:26:01.066Z,87.49
2022-10-17T18:31:07.949Z,91.01
2022-10-17T18:36:17.489Z,91.61
2022-10-17T18:41:25.447Z,89.70
2022-10-17T18:46:52.545Z,89.83
2022-10-17T18:52:00.682Z,88.74
2022-10-17T18:57:04.662Z,92.61
2022-10-17T19:02:13.056Z,93.60
2022-10-17T19:07:20.181Z,95.20
2022-10-17T19:12:26.106Z,98.44
2022-10-17T19:17:31.475Z,96.93
2022-10-17T19:22:41.585Z,95.39
2022-10-17T19:27:46.789Z,98.03
2022-10-17T19:32:51.901Z,98.54
2022-10-17T19:37:55.532Z,100.00
2022-10-17T19:42:59.544Z,97.26
2022-10-17T19:48:16.953Z,98.81
2022-10-17T19:53:21.435Z,99.21
2022-10-17T19:58:25.452Z,97.03
2022-10-17T20:03:31.587Z,98.33
2022-10-17T20:08:35.580Z,95.31
2022-10-17T20:13:40.030Z,95.63
2022-10-17T20:18:45.797Z,93.72
2022-10-17T20:23:50.678Z,92.28
2022-10-17T20:28:54.716Z,95.96
2022-10-17T20:34:00.576Z,96.43
2022-10-17T20:39:04.289Z,97.60
2022-10-17T20:44:08.449Z,100.00
2022-10-17T20:49:15.040Z,100.00
2022-10-17T20:54:18.701Z,96.40
2022-10-17T20:59:23.393Z,100.00
2022-10-17T21:04:46.709Z,97.24
2022-10-17T21:09:50.910Z,96.40
2022-10-17T21:14:54.583Z,100.00
2022-10-17T21:19:59.752Z,100.00
2022-10-17T21:25:03.420Z,99.53
2022-10-17T21:35:18.154Z,100.00
2022-10-17T21:40:21.869Z,98.68
2022-10-17T21:45:26.141Z,93.78
2022-10-17T21:50:32.475Z,96.78
2022-10-17T21:55:37.285Z,99.43
2022-10-17T22:00:41.282Z,96.88
2022-10-17T22:05:46.844Z,98.93
2022-10-17T22:10:50.558Z,100.00
2022-10-17T22:30:54.614Z,100.00
2022-10-17T22:35:58.562Z,100.00
2022-10-17T22:41:02.494Z,100.00
2022-10-17T22:46:09.082Z,100.00
2022-10-17T22:51:12.965Z,100.00
2022-10-17T22:56:17.843Z,100.00
2022-10-17T23:01:24.917Z,100.00
2022-10-17T23:06:29.925Z,100.00
2022-10-17T23:11:33.840Z,96.08
2022-10-17T23:16:38.953Z,100.00
2022-10-17T23:21:43.148Z,100.00
2022-10-17T23:26:46.949Z,100.00
2022-10-17T23:31:54.866Z,100.00
2022-10-17T23:36:58.666Z,100.00
2022-10-17T23:42:02.386Z,100.00
2022-10-17T23:47:09.704Z,100.00
2022-10-17T23:52:17.361Z,100.00
2022-10-17T23:57:22.322Z,98.32
